createdAt,value
2022-09-17T00:03:52.152Z,11.70
2022-09-17T00:08:51.562Z,11.80
2022-09-17T00:13:50.639Z,11.90
2022-09-17T00:18:49.708Z,12.00
2022-09-17T00:23:48.588Z,12.10
2022-09-17T00:28:48.992Z,12.20
2022-09-17T00:33:48.444Z,12.20
2022-09-17T00:38:47.567Z,12.20
2022-09-17T00:43:46.579Z,12.30
2022-09-17T00:48:45.887Z,12.30
2022-09-17T00:53:44.498Z,12.30
2022-09-17T00:58:43.916Z,12.20
2022-09-17T01:03:42.529Z,12.00
2022-09-17T01:08:41.424Z,11.90
2022-09-17T01:13:40.412Z,11.70
2022-09-17T01:18:39.412Z,11.50
2022-09-17T01:23:38.615Z,11.50
2022-09-17T01:28:37.432Z,11.50
2022-09-17T01:33:37.735Z,11.50
2022-09-17T01:38:36.551Z,11.60
2022-09-17T01:43:35.563Z,11.70
2022-09-17T01:48:34.575Z,11.70
2022-09-17T01:53:33.619Z,11.80
2022-09-17T01:58:32.496Z,11.80
2022-09-17T02:03:31.514Z,11.80
2022-09-17T02:08:30.556Z,11.70
2022-09-17T02:13:29.555Z,11.70
2022-09-17T02:18:28.525Z,11.70
2022-09-17T02:23:27.552Z,11.70
2022-09-17T02:28:26.565Z,11.70
2022-09-17T02:33:25.547Z,11.80
2022-09-17T02:38:24.563Z,11.70
2022-09-17T02:43:23.584Z,11.70
2022-09-17T02:48:22.584Z,11.70
2022-09-17T02:53:21.828Z,11.70
2022-09-17T02:58:20.904Z,11.70
2022-09-17T03:03:19.733Z,11.70
2022-09-17T03:08:19.828Z,11.70
2022-09-17T03:13:19.651Z,11.70
2022-09-17T03:18:18.627Z,11.80
2022-09-17T03:23:17.604Z,11.80
2022-09-17T03:28:16.604Z,11.80
2022-09-17T03:33:16.130Z,11.80
2022-09-17T03:38:14.705Z,11.80
2022-09-17T03:43:13.539Z,11.80
2022-09-17T03:48:12.655Z,11.80
2022-09-17T03:53:11.668Z,11.80
2022-09-17T03:58:10.739Z,11.70
2022-09-17T04:03:09.700Z,11.80
2022-09-17T04:08:08.737Z,11.80
2022-09-17T04:13:07.711Z,11.80
2022-09-17T04:18:06.729Z,11.90
2022-09-17T04:23:06.842Z,11.90
2022-09-17T04:28:05.536Z,11.90
2022-09-17T04:33:04.792Z,11.90
2022-09-17T04:38:03.793Z,11.90
2022-09-17T04:43:03.700Z,11.90
2022-09-17T04:48:02.637Z,11.90
2022-09-17T04:53:01.867Z,11.90
2022-09-17T04:58:00.657Z,11.90
2022-09-17T05:02:59.696Z,11.90
2022-09-17T05:07:58.677Z,11.80
2022-09-17T05:12:57.734Z,11.70
2022-09-17T05:17:56.810Z,11.60
2022-09-17T05:22:55.732Z,11.60
2022-09-17T05:27:55.845Z,11.60
2022-09-17T05:32:54.773Z,11.60
2022-09-17T05:37:53.646Z,11.70
2022-09-17T05:42:52.977Z,11.70
2022-09-17T05:47:51.985Z,11.80
2022-09-17T05:52:50.821Z,11.80
2022-09-17T05:57:49.817Z,12.10
2022-09-17T06:02:49.590Z,12.30
2022-09-17T06:07:48.689Z,12.50
2022-09-17T06:12:47.688Z,12.60
2022-09-17T06:17:46.985Z,12.60
2022-09-17T06:22:45.741Z,12.80
2022-09-17T06:27:44.628Z,12.90
2022-09-17T06:32:44.062Z,12.90
2022-09-17T06:37:42.733Z,12.80
2022-09-17T06:42:42.148Z,12.70
2022-09-17T06:47:40.772Z,12.60
2022-09-17T06:52:40.064Z,12.60
2022-09-17T06:57:39.065Z,12.60
2022-09-17T07:02:37.848Z,12.50
2022-09-17T07:07:37.727Z,12.50
2022-09-17T07:12:36.889Z,12.70
2022-09-17T07:17:35.933Z,12.90
2022-09-17T07:22:34.677Z,12.90
2022-09-17T07:27:34.329Z,12.80
2022-09-17T07:32:33.736Z,13.10
2022-09-17T07:37:32.731Z,13.30
2022-09-17T07:42:33.048Z,13.50
2022-09-17T07:47:32.673Z,13.50
2022-09-17T07:52:32.005Z,13.60
2022-09-17T07:57:30.812Z,13.80
2022-09-17T08:02:29.922Z,13.90
2022-09-17T08:07:29.177Z,14.00
2022-09-17T08:12:27.761Z,14.20
2022-09-17T08:17:27.224Z,14.30
2022-09-17T08:22:26.532Z,14.40
2022-09-17T08:27:26.365Z,14.50
2022-09-17T08:32:25.902Z,14.90
2022-09-17T08:37:25.100Z,15.10
2022-09-17T08:42:23.920Z,15.60
2022-09-17T08:47:22.931Z,15.80
2022-09-17T08:52:21.996Z,16.00
2022-09-17T08:57:20.955Z,15.70
2022-09-17T09:02:20.385Z,15.60
2022-09-17T09:07:19.917Z,15.80
2022-09-17T09:12:19.132Z,16.30
2022-09-17T09:17:18.077Z,16.70
2022-09-17T09:22:16.814Z,16.70
2022-09-17T09:27:16.497Z,16.60
2022-09-17T09:32:16.950Z,16.40
2022-09-17T09:37:15.802Z,16.80
2022-09-17T09:42:15.443Z,16.90
2022-09-17T09:47:15.095Z,16.80
2022-09-17T09:52:13.814Z,16.70
2022-09-17T09:57:13.311Z,17.10
2022-09-17T10:02:12.108Z,17.20
2022-09-17T10:07:10.967Z,16.90
2022-09-17T10:12:10.513Z,17.30
2022-09-17T10:17:09.876Z,17.80
2022-09-17T10:22:08.808Z,17.80
2022-09-17T10:27:07.900Z,17.50
2022-09-17T10:32:08.219Z,17.50
2022-09-17T10:37:06.748Z,17.20
2022-09-17T10:42:05.860Z,16.60
2022-09-17T10:47:05.067Z,16.50
2022-09-17T10:52:03.884Z,16.30
2022-09-17T10:57:02.909Z,16.90
2022-09-17T11:02:02.100Z,17.40
2022-09-17T11:07:01.019Z,17.90
2022-09-17T11:11:59.915Z,17.90
2022-09-17T11:16:58.856Z,18.30
2022-09-17T11:21:57.858Z,18.80
2022-09-17T11:26:56.875Z,18.40
2022-09-17T11:31:56.579Z,17.90
2022-09-17T11:36:56.341Z,17.70
2022-09-17T11:41:55.417Z,17.60
2022-09-17T11:46:54.222Z,17.70
2022-09-17T11:51:53.309Z,18.10
2022-09-17T11:56:51.954Z,17.80
2022-09-17T12:01:51.110Z,17.40
2022-09-17T12:06:50.626Z,18.10
2022-09-17T12:11:50.261Z,18.20
2022-09-17T12:16:49.232Z,17.40
2022-09-17T12:21:48.678Z,17.30
2022-09-17T12:26:48.773Z,16.80
2022-09-17T12:31:47.948Z,16.60
2022-09-17T12:36:48.821Z,17.20
2022-09-17T12:41:49.848Z,17.70
2022-09-17T12:46:48.969Z,17.20
2022-09-17T12:51:47.919Z,16.40
2022-09-17T12:56:46.827Z,14.90
2022-09-17T13:01:46.597Z,13.90
2022-09-17T13:06:46.015Z,13.50
2022-09-17T13:11:45.868Z,13.00
2022-09-17T13:16:44.988Z,13.30
2022-09-17T13:21:43.858Z,13.90
2022-09-17T13:26:44.924Z,14.40
2022-09-17T13:31:44.274Z,14.90
2022-09-17T13:36:43.017Z,15.40
2022-09-17T13:41:42.111Z,15.60
2022-09-17T13:46:41.070Z,15.90
2022-09-17T13:51:39.863Z,16.20
2022-09-17T13:56:39.109Z,16.60
2022-09-17T14:01:38.121Z,17.10
2022-09-17T14:06:36.847Z,17.90
2022-09-17T14:11:35.946Z,18.80
2022-09-17T14:16:39.962Z,18.50
2022-09-17T14:21:39.003Z,17.60
2022-09-17T14:26:37.963Z,15.60
2022-09-17T14:31:37.060Z,13.00
2022-09-17T14:36:36.143Z,12.50
2022-09-17T14:41:35.359Z,12.90
2022-09-17T14:46:33.940Z,13.30
2022-09-17T14:51:32.917Z,13.10
2022-09-17T14:56:31.916Z,12.50
2022-09-17T15:01:31.037Z,12.70
2022-09-17T15:06:30.231Z,13.40
2022-09-17T15:11:29.175Z,13.90
2022-09-17T15:16:30.389Z,14.00
2022-09-17T15:21:30.045Z,13.90
2022-09-17T15:26:29.089Z,14.00
2022-09-17T15:31:28.156Z,13.90
2022-09-17T15:36:27.249Z,14.00
2022-09-17T15:41:26.534Z,13.90
2022-09-17T15:46:26.512Z,13.90
2022-09-17T15:51:26.042Z,13.90
2022-09-17T15:56:25.078Z,14.40
2022-09-17T16:01:24.033Z,14.50
2022-09-17T16:06:25.482Z,14.50
2022-09-17T16:11:24.067Z,14.40
2022-09-17T16:16:23.241Z,14.30
2022-09-17T16:21:22.145Z,14.20
2022-09-17T16:26:21.128Z,14.20
2022-09-17T16:31:20.154Z,14.20
2022-09-17T16:36:19.116Z,14.10
2022-09-17T16:41:18.036Z,14.30
2022-09-17T16:46:17.422Z,14.60
2022-09-17T16:51:16.057Z,15.00
2022-09-17T16:56:15.309Z,15.10
2022-09-17T17:01:14.227Z,14.80
2022-09-17T17:06:14.422Z,14.40
2022-09-17T17:11:13.047Z,14.10
2022-09-17T17:16:12.282Z,13.80
2022-09-17T17:21:11.144Z,13.70
2022-09-17T17:26:10.070Z,13.50
2022-09-17T17:31:09.488Z,13.40
2022-09-17T17:36:08.748Z,13.40
2022-09-17T17:41:08.263Z,13.30
2022-09-17T17:46:07.271Z,13.20
2022-09-17T17:51:06.195Z,13.10
2022-09-17T17:56:05.992Z,13.00
2022-09-17T18:01:05.152Z,12.90
2022-09-17T18:06:04.226Z,12.80
2022-09-17T18:11:03.849Z,12.80
2022-09-17T18:16:03.538Z,12.70
2022-09-17T18:21:02.258Z,12.60
2022-09-17T18:26:01.058Z,12.60
2022-09-17T18:31:00.182Z,12.60
2022-09-17T18:35:59.265Z,12.60
2022-09-17T18:40:58.282Z,12.60
2022-09-17T18:45:57.281Z,12.70
2022-09-17T18:50:56.658Z,12.80
2022-09-17T18:55:55.306Z,12.80
2022-09-17T19:00:54.370Z,12.90
2022-09-17T19:05:53.325Z,13.00
2022-09-17T19:10:52.133Z,13.10
2022-09-17T19:15:51.223Z,13.10
2022-09-17T19:20:50.026Z,13.10
2022-09-17T19:25:49.169Z,13.20
2022-09-17T19:30:48.217Z,13.20
2022-09-17T19:35:49.081Z,13.30
2022-09-17T19:40:48.263Z,13.30
2022-09-17T19:45:47.061Z,13.30
2022-09-17T19:50:46.273Z,13.20
2022-09-17T19:55:45.820Z,13.20
2022-09-17T20:00:45.129Z,13.30
2022-09-17T20:05:44.130Z,13.30
2022-09-17T20:10:43.672Z,13.30
2022-09-17T20:15:42.187Z,13.40
2022-09-17T20:20:41.447Z,13.40
2022-09-17T20:25:40.072Z,13.40
2022-09-17T20:30:39.506Z,13.50
2022-09-17T20:35:38.175Z,13.50
2022-09-17T20:40:37.302Z,13.50
2022-09-17T20:45:36.217Z,13.40
2022-09-17T20:50:35.276Z,13.30
2022-09-17T20:55:34.231Z,13.30
2022-09-17T21:00:33.647Z,13.30
2022-09-17T21:05:32.250Z,13.30
2022-09-17T21:10:31.207Z,13.30
2022-09-17T21:15:30.484Z,13.30
2022-09-17T21:20:29.193Z,13.30
2022-09-17T21:25:28.374Z,13.40
2022-09-17T21:30:27.442Z,13.30
2022-09-17T21:35:28.003Z,13.10
2022-09-17T21:40:27.367Z,13.10
2022-09-17T21:45:26.300Z,12.90
2022-09-17T21:50:25.395Z,12.80
2022-09-17T21:55:24.213Z,12.50
2022-09-17T22:00:25.210Z,12.40
2022-09-17T22:05:24.095Z,12.10
2022-09-17T22:10:23.686Z,11.80
2022-09-17T22:15:22.199Z,11.80
2022-09-17T22:20:23.471Z,11.80
2022-09-17T22:25:22.184Z,11.80
2022-09-17T22:30:22.695Z,11.90
2022-09-17T22:35:21.416Z,12.00
2022-09-17T22:40:20.273Z,12.10
2022-09-17T22:45:19.144Z,12.20
2022-09-17T22:50:18.155Z,12.10
2022-09-17T22:55:17.274Z,12.10
2022-09-17T23:00:17.403Z,12.00
2022-09-17T23:05:16.321Z,12.00
2022-09-17T23:10:15.335Z,12.00
2022-09-17T23:15:14.431Z,12.00
2022-09-17T23:20:13.640Z,12.00
2022-09-17T23:25:12.424Z,12.00
2022-09-17T23:30:11.286Z,11.90
2022-09-17T23:35:10.374Z,11.90
2022-09-17T23:40:09.477Z,11.90
2022-09-17T23:45:08.399Z,12.00
2022-09-17T23:50:07.328Z,12.00
2022-09-17T23:55:06.875Z,12.10
